sensor_id;sensor_type;location;lat;lon;timestamp;pressure;altitude;pressure_sealevel;temperature;humidity
68508;BME280;55510;49.560;19.090;2023-03-08T15:17:41;94739.88;;;5.46;54.00
68508;BME280;55510;49.560;19.090;2023-03-08T15:20:45;94733.81;;;5.46;54.18
68508;BME280;55510;49.560;19.090;2023-03-08T15:23:48;94735.97;;;5.49;54.89
68508;BME280;55510;49.560;19.090;2023-03-08T15:26:49;94744.88;;;5.43;56.53
68508;BME280;55510;49.560;19.090;2023-03-08T15:29:51;94758.38;;;5.19;62.03
68508;BME280;55510;49.560;19.090;2023-03-08T15:32:53;94751.66;;;5.06;63.67
68508;BME280;55510;49.560;19.090;2023-03-08T15:35:54;94751.22;;;4.87;65.13
68508;BME280;55510;49.560;19.090;2023-03-08T15:38:55;94730.28;;;4.53;67.85
68508;BME280;55510;49.560;19.090;2023-03-08T15:41:55;94728.25;;;4.38;68.93
68508;BME280;55510;49.560;19.090;2023-03-08T15:44:56;94736.28;;;4.26;69.73
68508;BME280;55510;49.560;19.090;2023-03-08T15:48:05;94727.66;;;4.30;68.50
68508;BME280;55510;49.560;19.090;2023-03-08T15:51:15;94717.28;;;4.24;69.22
68508;BME280;55510;49.560;19.090;2023-03-08T15:54:17;94696.22;;;4.24;69.31
68508;BME280;55510;49.560;19.090;2023-03-08T15:57:17;94698.84;;;4.24;69.35
68508;BME280;55510;49.560;19.090;2023-03-08T16:00:20;94690.47;;;4.27;69.34
68508;BME280;55510;49.560;19.090;2023-03-08T16:03:21;94696.22;;;4.24;69.90
68508;BME280;55510;49.560;19.090;2023-03-08T16:06:25;94701.97;;;4.20;69.28
68508;BME280;55510;49.560;19.090;2023-03-08T16:09:26;94689.53;;;4.16;70.11
68508;BME280;55510;49.560;19.090;2023-03-08T16:12:27;94677.72;;;4.18;69.45
68508;BME280;55510;49.560;19.090;2023-03-08T16:15:28;94682.31;;;4.28;68.89
68508;BME280;55510;49.560;19.090;2023-03-08T16:18:29;94675.25;;;4.34;68.44
68508;BME280;55510;49.560;19.090;2023-03-08T16:21:30;94669.66;;;4.25;69.78
68508;BME280;55510;49.560;19.090;2023-03-08T16:24:30;94677.00;;;4.23;70.25
68508;BME280;55510;49.560;19.090;2023-03-08T16:27:31;94679.31;;;4.19;70.65
68508;BME280;55510;49.560;19.090;2023-03-08T16:30:33;94675.16;;;4.24;70.80
68508;BME280;55510;49.560;19.090;2023-03-08T16:33:34;94681.09;;;4.14;71.35
68508;BME280;55510;49.560;19.090;2023-03-08T16:36:39;94668.13;;;4.07;72.31
68508;BME280;55510;49.560;19.090;2023-03-08T16:39:40;94672.03;;;4.04;73.31
68508;BME280;55510;49.560;19.090;2023-03-08T16:42:40;94672.06;;;3.87;74.03
68508;BME280;55510;49.560;19.090;2023-03-08T16:45:52;94674.97;;;3.86;74.77
68508;BME280;55510;49.560;19.090;2023-03-08T16:48:54;94679.81;;;3.77;75.08
68508;BME280;55510;49.560;19.090;2023-03-08T16:51:55;94680.38;;;3.79;75.48
68508;BME280;55510;49.560;19.090;2023-03-08T16:54:56;94677.44;;;3.75;75.81
68508;BME280;55510;49.560;19.090;2023-03-08T16:57:57;94677.06;;;3.67;75.96
68508;BME280;55510;49.560;19.090;2023-03-08T17:00:57;94680.72;;;3.66;76.80
68508;BME280;55510;49.560;19.090;2023-03-08T17:03:59;94683.03;;;3.62;77.06
68508;BME280;55510;49.560;19.090;2023-03-08T17:07:00;94687.75;;;3.60;77.50
68508;BME280;55510;49.560;19.090;2023-03-08T17:10:04;94680.66;;;3.60;77.83
68508;BME280;55510;49.560;19.090;2023-03-08T17:13:05;94678.31;;;3.64;77.47
68508;BME280;55510;49.560;19.090;2023-03-08T17:16:10;94669.25;;;3.72;77.97
68508;BME280;55510;49.560;19.090;2023-03-08T17:19:11;94670.28;;;3.71;78.11
68508;BME280;55510;49.560;19.090;2023-03-08T17:22:12;94670.50;;;3.69;77.94
68508;BME280;55510;49.560;19.090;2023-03-08T17:25:13;94667.59;;;3.66;78.84
68508;BME280;55510;49.560;19.090;2023-03-08T17:28:14;94660.97;;;3.63;78.62
68508;BME280;55510;49.560;19.090;2023-03-08T17:31:17;94649.88;;;3.61;79.45
68508;BME280;55510;49.560;19.090;2023-03-08T17:34:18;94653.88;;;3.63;79.53
68508;BME280;55510;49.560;19.090;2023-03-08T17:37:22;94641.22;;;3.60;79.13
68508;BME280;55510;49.560;19.090;2023-03-08T17:40:23;94653.81;;;3.58;79.50
68508;BME280;55510;49.560;19.090;2023-03-08T17:43:25;94653.31;;;3.61;79.30
68508;BME280;55510;49.560;19.090;2023-03-08T17:46:27;94650.13;;;3.59;79.29
68508;BME280;55510;49.560;19.090;2023-03-08T17:49:27;94656.91;;;3.55;79.41
68508;BME280;55510;49.560;19.090;2023-03-08T17:52:28;94644.22;;;3.52;79.98
68508;BME280;55510;49.560;19.090;2023-03-08T17:55:29;94646.16;;;3.57;80.29
68508;BME280;55510;49.560;19.090;2023-03-08T17:58:30;94641.38;;;3.54;80.38
68508;BME280;55510;49.560;19.090;2023-03-08T18:01:31;94645.25;;;3.51;81.03
68508;BME280;55510;49.560;19.090;2023-03-08T18:04:32;94644.56;;;3.56;81.17
68508;BME280;55510;49.560;19.090;2023-03-08T18:07:33;94652.69;;;3.54;81.29
68508;BME280;55510;49.560;19.090;2023-03-08T18:10:34;94649.75;;;3.51;82.16
68508;BME280;55510;49.560;19.090;2023-03-08T18:13:36;94653.97;;;3.52;83.12
68508;BME280;55510;49.560;19.090;2023-03-08T18:16:40;94643.44;;;3.52;84.30
68508;BME280;55510;49.560;19.090;2023-03-08T18:19:42;94637.53;;;3.61;83.75
68508;BME280;55510;49.560;19.090;2023-03-08T18:22:43;94639.75;;;3.70;83.45
68508;BME280;55510;49.560;19.090;2023-03-08T18:25:46;94637.38;;;3.90;81.80
68508;BME280;55510;49.560;19.090;2023-03-08T18:28:47;94641.09;;;3.95;81.36
68508;BME280;55510;49.560;19.090;2023-03-08T18:31:48;94638.00;;;3.98;81.36
68508;BME280;55510;49.560;19.090;2023-03-08T18:34:49;94632.31;;;4.06;80.74
68508;BME280;55510;49.560;19.090;2023-03-08T18:37:49;94633.34;;;4.05;81.08
68508;BME280;55510;49.560;19.090;2023-03-08T18:40:50;94624.97;;;4.08;81.51
68508;BME280;55510;49.560;19.090;2023-03-08T18:43:58;94604.56;;;4.20;80.18
68508;BME280;55510;49.560;19.090;2023-03-08T18:46:59;94605.69;;;4.30;80.20
68508;BME280;55510;49.560;19.090;2023-03-08T18:49:59;94592.00;;;4.28;79.61
68508;BME280;55510;49.560;19.090;2023-03-08T18:53:00;94587.81;;;4.32;79.64
68508;BME280;55510;49.560;19.090;2023-03-08T18:56:01;94584.72;;;4.40;79.31
68508;BME280;55510;49.560;19.090;2023-03-08T18:59:05;94584.00;;;4.45;79.21
68508;BME280;55510;49.560;19.090;2023-03-08T19:02:09;94584.44;;;4.64;78.85
68508;BME280;55510;49.560;19.090;2023-03-08T19:05:11;94579.16;;;4.64;78.64
68508;BME280;55510;49.560;19.090;2023-03-08T19:08:13;94573.66;;;4.66;78.81
68508;BME280;55510;49.560;19.090;2023-03-08T19:11:18;94586.06;;;4.70;78.52
68508;BME280;55510;49.560;19.090;2023-03-08T19:14:21;94567.16;;;4.78;78.39
68508;BME280;55510;49.560;19.090;2023-03-08T19:17:22;94556.56;;;4.73;78.67
68508;BME280;55510;49.560;19.090;2023-03-08T19:20:23;94551.31;;;4.73;78.79
68508;BME280;55510;49.560;19.090;2023-03-08T19:23:26;94561.13;;;4.83;78.96
68508;BME280;55510;49.560;19.090;2023-03-08T19:26:28;94554.88;;;4.94;78.67
68508;BME280;55510;49.560;19.090;2023-03-08T19:29:37;94560.75;;;5.07;78.75
68508;BME280;55510;49.560;19.090;2023-03-08T19:32:37;94549.94;;;5.03;78.45
68508;BME280;55510;49.560;19.090;2023-03-08T19:35:38;94560.66;;;5.29;78.23
68508;BME280;55510;49.560;19.090;2023-03-08T19:38:40;94553.03;;;5.33;77.87
68508;BME280;55510;49.560;19.090;2023-03-08T19:41:42;94548.03;;;5.31;78.50
68508;BME280;55510;49.560;19.090;2023-03-08T19:44:42;94546.47;;;5.41;77.83
68508;BME280;55510;49.560;19.090;2023-03-08T19:47:48;94556.84;;;5.53;78.23
68508;BME280;55510;49.560;19.090;2023-03-08T19:50:48;94560.03;;;5.55;78.43
68508;BME280;55510;49.560;19.090;2023-03-08T19:53:49;94568.19;;;5.53;77.92
68508;BME280;55510;49.560;19.090;2023-03-08T19:56:50;94555.56;;;5.65;77.48
68508;BME280;55510;49.560;19.090;2023-03-08T19:59:51;94565.09;;;5.72;77.83
68508;BME280;55510;49.560;19.090;2023-03-08T20:02:51;94546.69;;;5.82;77.24
68508;BME280;55510;49.560;19.090;2023-03-08T20:05:52;94534.78;;;5.85;77.35
68508;BME280;55510;49.560;19.090;2023-03-08T20:08:54;94548.53;;;5.92;76.83
68508;BME280;55510;49.560;19.090;2023-03-08T20:11:56;94537.75;;;5.99;76.95
68508;BME280;55510;49.560;19.090;2023-03-08T20:14:57;94543.59;;;6.01;76.75
68508;BME280;55510;49.560;19.090;2023-03-08T20:17:57;94536.16;;;5.98;77.04
68508;BME280;55510;49.560;19.090;2023-03-08T20:20:58;94537.50;;;6.00;76.89
68508;BME280;55510;49.560;19.090;2023-03-08T20:24:01;94523.19;;;5.96;76.94
68508;BME280;55510;49.560;19.090;2023-03-08T20:27:02;94526.69;;;6.02;76.54
68508;BME280;55510;49.560;19.090;2023-03-08T20:30:04;94526.66;;;5.97;76.71
68508;BME280;55510;49.560;19.090;2023-03-08T20:33:05;94514.50;;;5.90;77.00
68508;BME280;55510;49.560;19.090;2023-03-08T20:36:06;94512.63;;;5.86;76.92
68508;BME280;55510;49.560;19.090;2023-03-08T20:39:06;94512.88;;;5.84;76.84
68508;BME280;55510;49.560;19.090;2023-03-08T20:42:07;94513.94;;;5.83;77.02
68508;BME280;55510;49.560;19.090;2023-03-08T20:45:08;94507.84;;;5.83;77.23
68508;BME280;55510;49.560;19.090;2023-03-08T20:48:09;94501.50;;;5.78;77.29
68508;BME280;55510;49.560;19.090;2023-03-08T20:51:15;94507.31;;;5.75;77.75
68508;BME280;55510;49.560;19.090;2023-03-08T20:54:16;94495.41;;;5.73;77.75
68508;BME280;55510;49.560;19.090;2023-03-08T20:57:17;94498.63;;;5.80;77.63
68508;BME280;55510;49.560;19.090;2023-03-08T21:00:18;94506.81;;;5.89;76.82
68508;BME280;55510;49.560;19.090;2023-03-08T21:03:18;94503.63;;;5.87;77.04
68508;BME280;55510;49.560;19.090;2023-03-08T21:06:22;94500.78;;;5.99;76.76
68508;BME280;55510;49.560;19.090;2023-03-08T21:09:22;94500.78;;;5.99;77.45
68508;BME280;55510;49.560;19.090;2023-03-08T21:12:23;94505.53;;;5.97;78.11
68508;BME280;55510;49.560;19.090;2023-03-08T21:15:24;94510.59;;;6.08;78.67
68508;BME280;55510;49.560;19.090;2023-03-08T21:18:25;94514.84;;;6.15;79.07
68508;BME280;55510;49.560;19.090;2023-03-08T21:21:35;94511.97;;;6.27;79.55
68508;BME280;55510;49.560;19.090;2023-03-08T21:24:36;94509.03;;;6.28;79.94
68508;BME280;55510;49.560;19.090;2023-03-08T21:27:37;94511.44;;;6.30;79.94
68508;BME280;55510;49.560;19.090;2023-03-08T21:30:38;94500.34;;;6.33;79.93
68508;BME280;55510;49.560;19.090;2023-03-08T21:33:38;94505.63;;;6.33;80.03
68508;BME280;55510;49.560;19.090;2023-03-08T21:36:40;94501.94;;;6.34;79.93
68508;BME280;55510;49.560;19.090;2023-03-08T21:39:40;94497.16;;;6.31;80.00
68508;BME280;55510;49.560;19.090;2023-03-08T21:42:41;94488.19;;;6.27;80.42
68508;BME280;55510;49.560;19.090;2023-03-08T21:45:42;94485.53;;;6.32;80.45
68508;BME280;55510;49.560;19.090;2023-03-08T21:48:43;94502.97;;;6.28;80.64
68508;BME280;55510;49.560;19.090;2023-03-08T21:51:44;94498.75;;;6.42;80.00
68508;BME280;55510;49.560;19.090;2023-03-08T21:54:44;94481.84;;;6.38;80.10
68508;BME280;55510;49.560;19.090;2023-03-08T21:57:45;94497.69;;;6.53;79.57
68508;BME280;55510;49.560;19.090;2023-03-08T22:00:46;94490.81;;;6.52;79.28
68508;BME280;55510;49.560;19.090;2023-03-08T22:03:47;94485.81;;;6.56;79.29
68508;BME280;55510;49.560;19.090;2023-03-08T22:06:49;94481.06;;;6.53;79.68
68508;BME280;55510;49.560;19.090;2023-03-08T22:09:49;94475.25;;;6.51;79.65
68508;BME280;55510;49.560;19.090;2023-03-08T22:12:50;94481.06;;;6.48;80.16
68508;BME280;55510;49.560;19.090;2023-03-08T22:15:50;94474.19;;;6.52;80.15
68508;BME280;55510;49.560;19.090;2023-03-08T22:18:53;94478.16;;;6.44;80.64
68508;BME280;55510;49.560;19.090;2023-03-08T22:21:54;94457.53;;;6.46;80.72
68508;BME280;55510;49.560;19.090;2023-03-08T22:24:57;94463.88;;;6.40;81.15
68508;BME280;55510;49.560;19.090;2023-03-08T22:27:58;94462.56;;;6.43;81.26
68508;BME280;55510;49.560;19.090;2023-03-08T22:30:59;94455.44;;;6.38;83.00
68508;BME280;55510;49.560;19.090;2023-03-08T22:33:59;94451.19;;;6.32;84.35
68508;BME280;55510;49.560;19.090;2023-03-08T22:37:00;94448.56;;;6.21;85.59
68508;BME280;55510;49.560;19.090;2023-03-08T22:40:01;94459.91;;;6.17;86.63
68508;BME280;55510;49.560;19.090;2023-03-08T22:43:04;94456.75;;;6.20;86.69
68508;BME280;55510;49.560;19.090;2023-03-08T22:46:11;94459.91;;;6.17;86.97
68508;BME280;55510;49.560;19.090;2023-03-08T22:49:12;94454.88;;;6.10;87.57
68508;BME280;55510;49.560;19.090;2023-03-08T22:52:13;94445.38;;;6.09;87.69
68508;BME280;55510;49.560;19.090;2023-03-08T22:55:14;94452.75;;;6.12;87.43
68508;BME280;55510;49.560;19.090;2023-03-08T22:58:14;94450.69;;;6.19;86.54
68508;BME280;55510;49.560;19.090;2023-03-08T23:01:20;94440.13;;;6.24;86.53
68508;BME280;55510;49.560;19.090;2023-03-08T23:04:21;94449.88;;;6.29;86.03
68508;BME280;55510;49.560;19.090;2023-03-08T23:07:22;94453.03;;;6.26;86.37
68508;BME280;55510;49.560;19.090;2023-03-08T23:10:23;94447.50;;;6.33;85.92
68508;BME280;55510;49.560;19.090;2023-03-08T23:13:23;94452.78;;;6.33;86.10
68508;BME280;55510;49.560;19.090;2023-03-08T23:16:24;94448.56;;;6.42;85.70
68508;BME280;55510;49.560;19.090;2023-03-08T23:19:26;94440.63;;;6.37;85.83
68508;BME280;55510;49.560;19.090;2023-03-08T23:22:26;94459.13;;;6.32;86.02
68508;BME280;55510;49.560;19.090;2023-03-08T23:25:27;94460.97;;;6.21;86.89
68508;BME280;55510;49.560;19.090;2023-03-08T23:28:28;94454.88;;;6.15;87.33
68508;BME280;55510;49.560;19.090;2023-03-08T23:31:32;94445.88;;;6.11;87.63
68508;BME280;55510;49.560;19.090;2023-03-08T23:34:33;94443.25;;;6.16;87.24
68508;BME280;55510;49.560;19.090;2023-03-08T23:37:34;94454.09;;;6.09;87.45
68508;BME280;55510;49.560;19.090;2023-03-08T23:40:37;94455.94;;;6.09;87.91
68508;BME280;55510;49.560;19.090;2023-03-08T23:43:40;94456.47;;;6.11;87.95
68508;BME280;55510;49.560;19.090;2023-03-08T23:46:40;94467.31;;;6.15;87.50
68508;BME280;55510;49.560;19.090;2023-03-08T23:49:47;94450.41;;;6.21;87.59
68508;BME280;55510;49.560;19.090;2023-03-08T23:52:47;94455.97;;;6.24;87.12
68508;BME280;55510;49.560;19.090;2023-03-08T23:55:48;94462.53;;;6.22;87.24
68508;BME280;55510;49.560;19.090;2023-03-08T23:58:49;94459.91;;;6.22;87.39
